Time;durP1;ratioP1;P1;durP2;ratioP2;P2;SDS_P1;SDS_P2;PMS_P1;PMS_P2;Temp;Humidity;BMP_temperature;BMP_pressure;BME280_temperature;BME280_humidity;BME280_pressure;Samples;Min_cycle;Max_cycle;Signal;HPM_P1;HPM_P2
2023/03/05 00:00:05;;;;;;;8.60;1.60;;;2.40;99.90;;;;;;4954738;28;20246;-76
2023/03/05 00:02:40;;;;;;;6.23;1.50;;;2.40;99.90;;;;;;4940882;28;20229;-77
2023/03/05 00:05:08;;;;;;;10.20;2.10;;;2.40;99.90;;;;;;4943532;28;20233;-77
2023/03/05 00:07:35;;;;;;;9.43;2.17;;;2.40;99.90;;;;;;4943717;28;20281;-77
2023/03/05 00:10:05;;;;;;;9.60;2.00;;;2.40;99.90;;;;;;4959465;28;20239;-77
2023/03/05 00:12:32;;;;;;;6.77;2.20;;;2.40;99.90;;;;;;4944376;28;20227;-77
2023/03/05 00:14:59;;;;;;;5.03;1.80;;;2.40;99.90;;;;;;4957560;28;20314;-77
2023/03/05 00:17:26;;;;;;;4.63;1.60;;;2.40;99.90;;;;;;4943063;28;20931;-77
2023/03/05 00:19:53;;;;;;;7.63;1.97;;;2.50;99.90;;;;;;4942002;28;20225;-77
2023/03/05 00:22:19;;;;;;;7.47;1.90;;;2.40;99.90;;;;;;4943764;28;20319;-77
2023/03/05 00:24:46;;;;;;;9.80;2.10;;;2.50;99.90;;;;;;4956989;28;20224;-76
2023/03/05 00:27:14;;;;;;;6.00;1.70;;;2.50;99.90;;;;;;4945334;28;20758;-76
2023/03/05 00:29:41;;;;;;;9.10;2.00;;;2.50;99.90;;;;;;4940565;28;20319;-76
2023/03/05 00:32:08;;;;;;;7.33;1.53;;;2.50;99.90;;;;;;4942831;28;20234;-76
2023/03/05 00:34:36;;;;;;;5.40;1.77;;;2.50;99.90;;;;;;4941047;28;20855;-76
2023/03/05 00:37:03;;;;;;;4.67;1.33;;;2.50;99.90;;;;;;4942406;28;20224;-76
2023/03/05 00:39:29;;;;;;;5.90;1.30;;;2.50;99.90;;;;;;4940666;28;20224;-77
2023/03/05 00:41:57;;;;;;;5.13;1.53;;;2.50;99.90;;;;;;4942288;28;20224;-77
2023/03/05 00:44:25;;;;;;;6.07;1.90;;;2.50;99.90;;;;;;4941662;28;20312;-77
2023/03/05 00:46:52;;;;;;;7.47;1.73;;;2.50;99.90;;;;;;4943043;28;20302;-77
2023/03/05 00:49:19;;;;;;;7.20;1.50;;;2.50;99.90;;;;;;4938620;28;20251;-77
2023/03/05 00:51:46;;;;;;;8.97;1.73;;;2.50;99.90;;;;;;4956208;28;20250;-77
2023/03/05 00:54:13;;;;;;;7.30;1.63;;;2.50;99.90;;;;;;4940823;28;20308;-77
2023/03/05 00:56:40;;;;;;;5.97;2.00;;;2.50;99.90;;;;;;4942411;28;20232;-77
2023/03/05 00:59:07;;;;;;;4.70;1.30;;;2.50;99.90;;;;;;4956311;28;20238;-77
2023/03/05 01:04:09;;;;;;;5.73;2.00;;;2.50;99.90;;;;;;4959192;28;20289;-76
2023/03/05 01:06:37;;;;;;;6.80;1.90;;;2.50;99.90;;;;;;4965289;28;20700;-76
2023/03/05 01:09:04;;;;;;;3.23;1.37;;;2.50;99.90;;;;;;4963538;28;20256;-76
2023/03/05 01:11:31;;;;;;;4.40;1.50;;;2.50;99.90;;;;;;4954413;28;20291;-76
2023/03/05 01:13:58;;;;;;;5.83;1.60;;;2.50;99.90;;;;;;4964892;28;20226;-76
2023/03/05 01:16:25;;;;;;;6.73;1.57;;;2.50;99.90;;;;;;4964510;28;20317;-76
2023/03/05 01:18:52;;;;;;;6.63;1.53;;;2.50;99.90;;;;;;4964021;28;20224;-76
2023/03/05 01:21:20;;;;;;;8.37;2.17;;;2.50;99.90;;;;;;4959845;28;20317;-76
2023/03/05 01:23:47;;;;;;;6.43;1.83;;;2.40;99.90;;;;;;4959529;28;20225;-76
2023/03/05 01:26:14;;;;;;;8.07;1.70;;;2.40;99.90;;;;;;4962539;28;20227;-75
2023/03/05 01:28:41;;;;;;;8.03;1.70;;;2.40;99.90;;;;;;4959403;28;20722;-76
2023/03/05 01:31:09;;;;;;;8.47;1.70;;;2.40;99.90;;;;;;4961299;28;20219;-77
2023/03/05 01:33:36;;;;;;;4.37;1.77;;;2.30;99.90;;;;;;4962122;28;20253;-76
2023/03/05 01:36:06;;;;;;;6.67;1.57;;;2.30;99.90;;;;;;4963377;28;20306;-76
2023/03/05 01:38:34;;;;;;;7.63;1.80;;;2.20;99.90;;;;;;4963792;28;20286;-76
2023/03/05 01:41:01;;;;;;;5.70;1.90;;;2.20;99.90;;;;;;4962627;28;20210;-75
2023/03/05 01:43:29;;;;;;;5.43;1.43;;;2.20;99.90;;;;;;4976868;28;20239;-76
2023/03/05 01:46:22;;;;;;;4.50;1.73;;;2.10;99.90;;;;;;4963623;28;20231;-76
2023/03/05 01:48:52;;;;;;;7.27;1.90;;;2.10;99.90;;;;;;4965072;28;20225;-76
2023/03/05 01:51:20;;;;;;;6.57;2.23;;;2.10;99.90;;;;;;4960735;28;20228;-76
2023/03/05 01:53:49;;;;;;;4.60;1.87;;;2.00;99.90;;;;;;4955992;28;20233;-76
2023/03/05 01:56:16;;;;;;;5.53;2.17;;;2.00;99.90;;;;;;4960242;28;20303;-76
2023/03/05 01:58:44;;;;;;;8.33;2.17;;;2.00;99.90;;;;;;4971959;28;20221;-76
2023/03/05 02:01:12;;;;;;;8.97;1.87;;;1.90;99.90;;;;;;4974985;28;20229;-76
2023/03/05 02:03:40;;;;;;;7.00;2.20;;;1.90;99.90;;;;;;4959769;28;20290;-75
2023/03/05 02:06:07;;;;;;;6.40;2.17;;;1.90;99.90;;;;;;4962224;28;20262;-75
2023/03/05 02:08:34;;;;;;;9.80;2.17;;;1.90;99.90;;;;;;4965235;28;20329;-76
2023/03/05 02:11:03;;;;;;;6.40;2.13;;;1.90;99.90;;;;;;4963900;28;20236;-76
2023/03/05 02:13:32;;;;;;;9.80;2.40;;;1.90;99.90;;;;;;4966098;28;20228;-76
2023/03/05 02:16:00;;;;;;;5.33;2.43;;;1.90;99.90;;;;;;4967810;28;20226;-76
2023/03/05 02:18:28;;;;;;;7.13;2.10;;;1.90;99.90;;;;;;4959265;28;20311;-76
2023/03/05 02:21:01;;;;;;;9.53;2.57;;;1.90;99.90;;;;;;4961433;28;20244;-76
2023/03/05 02:23:31;;;;;;;6.57;1.60;;;1.90;99.90;;;;;;4976116;28;20251;-75
2023/03/05 02:25:58;;;;;;;8.07;1.93;;;1.80;99.90;;;;;;4977063;28;20314;-75
2023/03/05 02:28:30;;;;;;;4.40;1.47;;;1.80;99.90;;;;;;4962417;28;20689;-76
2023/03/05 02:30:57;;;;;;;6.70;2.03;;;1.80;99.90;;;;;;4957373;28;20581;-75
2023/03/05 02:33:24;;;;;;;10.07;2.30;;;1.70;99.90;;;;;;4959975;28;20235;-75
2023/03/05 02:35:50;;;;;;;8.70;1.87;;;1.70;99.90;;;;;;4975554;28;20300;-76
2023/03/05 02:38:20;;;;;;;9.57;2.33;;;1.70;99.90;;;;;;4978720;28;20837;-76
2023/03/05 02:40:47;;;;;;;7.30;2.47;;;1.60;99.90;;;;;;4959174;28;20228;-76
2023/03/05 02:43:16;;;;;;;8.43;2.57;;;1.60;99.90;;;;;;4956402;28;20298;-76
2023/03/05 02:45:42;;;;;;;4.63;2.20;;;1.50;99.90;;;;;;4960676;28;20240;-76
2023/03/05 02:48:09;;;;;;;3.43;1.93;;;1.50;99.90;;;;;;4960657;28;20210;-76
2023/03/05 02:50:38;;;;;;;7.27;2.10;;;1.60;99.90;;;;;;4975710;28;20244;-76
2023/03/05 02:53:05;;;;;;;6.40;2.10;;;1.50;99.90;;;;;;4963442;28;20231;-76
2023/03/05 02:55:33;;;;;;;6.53;2.50;;;1.60;99.90;;;;;;4955790;28;20929;-76
2023/03/05 02:58:00;;;;;;;5.10;1.97;;;1.60;99.90;;;;;;4973557;28;20219;-76
2023/03/05 03:00:28;;;;;;;6.53;2.10;;;1.60;99.90;;;;;;4968232;28;20682;-75
2023/03/05 03:02:55;;;;;;;5.03;1.87;;;1.60;99.90;;;;;;4959051;28;20228;-76
2023/03/05 03:05:21;;;;;;;4.00;1.60;;;1.60;99.90;;;;;;4962709;28;20855;-76
2023/03/05 03:07:48;;;;;;;4.10;1.60;;;1.60;99.90;;;;;;4978635;28;20590;-76
2023/03/05 03:10:16;;;;;;;5.77;1.67;;;1.50;99.90;;;;;;4960121;28;20763;-76
2023/03/05 03:12:45;;;;;;;4.80;1.63;;;1.50;99.90;;;;;;4966965;28;20227;-76
2023/03/05 03:15:14;;;;;;;4.67;1.40;;;1.50;99.90;;;;;;4971187;28;20811;-76
2023/03/05 03:17:41;;;;;;;4.70;2.00;;;1.50;99.90;;;;;;4959021;28;20224;-76
2023/03/05 03:20:12;;;;;;;3.73;1.80;;;1.50;99.90;;;;;;4965855;28;20222;-76
2023/03/05 03:22:40;;;;;;;4.13;2.00;;;1.40;99.90;;;;;;4962277;28;20232;-77
2023/03/05 03:25:08;;;;;;;4.90;1.77;;;1.40;99.90;;;;;;4969262;28;20232;-76
2023/03/05 03:27:35;;;;;;;6.43;1.77;;;1.40;99.90;;;;;;4957573;28;20767;-76
2023/03/05 03:30:03;;;;;;;3.40;1.63;;;1.40;99.90;;;;;;4960464;28;20742;-77
2023/03/05 03:32:31;;;;;;;4.57;1.50;;;1.40;99.90;;;;;;4966969;28;20233;-76
2023/03/05 03:34:57;;;;;;;3.23;1.80;;;1.40;99.90;;;;;;4966729;28;20736;-76
2023/03/05 03:37:25;;;;;;;5.87;1.93;;;1.40;99.90;;;;;;4958527;28;20241;-76
2023/03/05 03:39:51;;;;;;;4.60;2.00;;;1.50;99.90;;;;;;4960251;28;20233;-76
2023/03/05 03:42:19;;;;;;;4.67;2.00;;;1.50;99.90;;;;;;4971859;28;20237;-76
2023/03/05 03:44:46;;;;;;;9.03;1.63;;;1.40;99.90;;;;;;4964707;28;20227;-76
2023/03/05 03:47:14;;;;;;;3.53;1.40;;;1.40;99.90;;;;;;4968752;28;20225;-76
2023/03/05 03:49:40;;;;;;;8.57;2.50;;;1.40;99.90;;;;;;4968450;28;20404;-76
2023/03/05 03:52:08;;;;;;;6.03;2.37;;;1.40;99.90;;;;;;4968640;28;20609;-76
2023/03/05 03:54:34;;;;;;;4.10;1.70;;;1.30;99.90;;;;;;4963991;28;20239;-76
2023/03/05 03:57:02;;;;;;;5.20;2.00;;;1.30;99.90;;;;;;4964488;28;20213;-76
2023/03/05 03:59:28;;;;;;;3.03;2.03;;;1.30;99.90;;;;;;4971664;28;20227;-76
2023/03/05 04:01:55;;;;;;;5.80;2.10;;;1.20;99.90;;;;;;4967102;28;20323;-76
2023/03/05 04:04:25;;;;;;;7.27;2.20;;;1.20;99.90;;;;;;4965652;28;20932;-76
2023/03/05 04:06:52;;;;;;;6.17;2.40;;;1.10;99.90;;;;;;4967648;28;20249;-77
2023/03/05 04:09:19;;;;;;;7.60;2.53;;;1.10;99.90;;;;;;4965331;28;20230;-76
2023/03/05 04:11:46;;;;;;;4.07;2.20;;;1.10;99.90;;;;;;4962672;28;20223;-77
2023/03/05 04:14:12;;;;;;;5.77;2.70;;;1.10;99.90;;;;;;4978897;28;20215;-76
2023/03/05 04:16:39;;;;;;;4.70;2.60;;;1.00;99.90;;;;;;4965090;28;20227;-76
2023/03/05 04:19:06;;;;;;;4.90;2.43;;;1.00;99.90;;;;;;4983548;28;20231;-77
2023/03/05 04:21:34;;;;;;;4.30;2.47;;;1.10;99.90;;;;;;4962957;28;20286;-76
2023/03/05 04:24:01;;;;;;;4.43;2.10;;;1.00;99.90;;;;;;4967947;28;20694;-76
2023/03/05 04:26:28;;;;;;;3.67;2.43;;;1.10;99.90;;;;;;4962925;28;20231;-77
2023/03/05 04:28:54;;;;;;;5.47;2.50;;;1.10;99.90;;;;;;4980227;28;21148;-76
2023/03/05 04:31:22;;;;;;;5.97;2.00;;;1.10;99.90;;;;;;4960828;28;20218;-76
2023/03/05 04:33:49;;;;;;;4.73;2.20;;;1.10;99.90;;;;;;4980393;28;20804;-76
2023/03/05 04:36:15;;;;;;;4.80;1.90;;;1.10;99.90;;;;;;4963248;28;20236;-76
2023/03/05 04:38:43;;;;;;;4.67;2.30;;;1.10;99.90;;;;;;4964818;28;20224;-76
2023/03/05 04:41:10;;;;;;;3.23;2.00;;;1.10;99.90;;;;;;4965988;28;20230;-76
2023/03/05 04:43:37;;;;;;;3.10;1.50;;;1.10;99.90;;;;;;4962317;28;20291;-76
2023/03/05 04:46:04;;;;;;;5.73;1.73;;;1.10;99.90;;;;;;4966717;28;20253;-77
2023/03/05 04:48:30;;;;;;;4.20;1.60;;;1.10;99.90;;;;;;4968506;28;20722;-77
2023/03/05 04:50:57;;;;;;;4.07;1.57;;;1.10;99.90;;;;;;4959285;28;20254;-76
2023/03/05 04:53:24;;;;;;;6.63;1.83;;;1.10;99.90;;;;;;4969275;28;20235;-76
2023/03/05 04:55:54;;;;;;;6.37;2.00;;;1.10;99.90;;;;;;4962700;28;20318;-76
2023/03/05 04:58:21;;;;;;;4.70;2.03;;;1.10;99.90;;;;;;4965307;28;20753;-76
2023/03/05 05:00:48;;;;;;;6.50;2.53;;;1.10;99.90;;;;;;4960157;28;20241;-77
2023/03/05 05:03:15;;;;;;;6.93;2.80;;;1.10;99.90;;;;;;4975494;28;20234;-76
2023/03/05 05:05:41;;;;;;;8.10;3.60;;;1.10;99.90;;;;;;4965238;28;20230;-77
2023/03/05 05:08:09;;;;;;;10.17;3.83;;;1.10;99.90;;;;;;4970920;28;20226;-77
2023/03/05 05:10:38;;;;;;;7.30;3.80;;;1.10;99.90;;;;;;4962900;28;20239;-77
2023/03/05 05:13:06;;;;;;;7.23;4.07;;;1.10;99.90;;;;;;4960088;28;22010;-77
2023/03/05 05:15:33;;;;;;;7.17;4.30;;;1.10;99.90;;;;;;4965426;28;20222;-76
2023/03/05 05:17:59;;;;;;;8.53;4.03;;;1.10;99.90;;;;;;4963380;28;20234;-76
2023/03/05 05:20:26;;;;;;;6.57;3.50;;;1.10;99.90;;;;;;4966049;28;20238;-77
2023/03/05 05:22:53;;;;;;;6.93;4.00;;;1.10;99.90;;;;;;4978805;28;20667;-77
2023/03/05 05:25:20;;;;;;;7.57;3.97;;;1.10;99.90;;;;;;4962404;28;20860;-76
2023/03/05 05:27:47;;;;;;;6.43;3.47;;;1.10;99.90;;;;;;4964576;28;20231;-76
2023/03/05 05:30:15;;;;;;;5.93;3.37;;;1.10;99.90;;;;;;4966803;28;20246;-76
2023/03/05 05:32:42;;;;;;;7.57;3.10;;;1.10;99.90;;;;;;4963452;28;20314;-76
2023/03/05 05:35:10;;;;;;;9.00;2.70;;;1.10;99.90;;;;;;4964034;28;20230;-75
2023/03/05 05:37:37;;;;;;;7.17;2.77;;;1.10;99.90;;;;;;4961751;28;20740;-76
2023/03/05 05:40:05;;;;;;;7.00;2.67;;;1.10;99.90;;;;;;4973185;28;20337;-81
2023/03/05 05:42:32;;;;;;;5.83;2.87;;;1.10;99.90;;;;;;4966518;28;20238;-79
2023/03/05 05:44:58;;;;;;;7.53;2.60;;;1.10;99.90;;;;;;4970883;28;20245;-81
2023/03/05 05:47:26;;;;;;;9.40;2.60;;;1.10;99.90;;;;;;4969210;28;20892;-82
2023/03/05 05:49:53;;;;;;;5.07;2.43;;;1.10;99.90;;;;;;4990689;28;20227;-81
2023/03/05 05:52:20;;;;;;;8.43;2.33;;;1.20;99.90;;;;;;4984537;28;20227;-81
2023/03/05 05:54:47;;;;;;;4.97;2.10;;;1.20;99.90;;;;;;4968709;28;20250;-81
2023/03/05 05:57:14;;;;;;;7.20;2.13;;;1.20;99.90;;;;;;4971988;28;20230;-80
2023/03/05 05:59:41;;;;;;;7.73;2.10;;;1.20;99.90;;;;;;4987451;28;20508;-81
2023/03/05 06:02:09;;;;;;;5.10;1.70;;;1.20;99.90;;;;;;4970604;28;20234;-80
2023/03/05 06:04:39;;;;;;;5.03;1.90;;;1.20;99.90;;;;;;4984127;28;20231;-80
2023/03/05 06:07:05;;;;;;;6.83;1.90;;;1.20;99.90;;;;;;4987838;28;20312;-81
2023/03/05 06:09:34;;;;;;;8.03;1.80;;;1.30;99.90;;;;;;4984069;28;20234;-82
2023/03/05 06:12:01;;;;;;;5.40;1.63;;;1.20;99.90;;;;;;4992528;28;20232;-81
2023/03/05 06:14:28;;;;;;;6.67;1.67;;;1.20;99.90;;;;;;4985709;28;20238;-80
2023/03/05 06:16:55;;;;;;;5.30;2.17;;;1.30;99.90;;;;;;4971160;28;20281;-80
2023/03/05 06:19:22;;;;;;;8.50;2.20;;;1.30;99.90;;;;;;4969078;28;20713;-81
2023/03/05 06:21:50;;;;;;;5.97;1.67;;;1.30;99.90;;;;;;4969875;28;20222;-81
2023/03/05 06:24:18;;;;;;;3.43;1.50;;;1.30;99.90;;;;;;4985425;28;20228;-83
2023/03/05 06:26:47;;;;;;;3.77;1.30;;;1.30;99.90;;;;;;4970895;28;20232;-79
2023/03/05 06:29:14;;;;;;;7.67;1.40;;;1.30;99.90;;;;;;4968338;28;20227;-79
2023/03/05 06:31:40;;;;;;;6.07;1.50;;;1.40;99.90;;;;;;4965942;28;20325;-80
2023/03/05 06:34:07;;;;;;;5.70;1.10;;;1.40;99.90;;;;;;4964784;28;20330;-79
2023/03/05 06:36:34;;;;;;;4.93;1.20;;;1.40;99.90;;;;;;4970343;28;20766;-80
2023/03/05 06:39:03;;;;;;;6.90;1.47;;;1.40;99.90;;;;;;4981744;28;20230;-80
2023/03/05 06:41:32;;;;;;;8.23;1.23;;;1.40;99.90;;;;;;4983096;28;20244;-79
2023/03/05 06:44:02;;;;;;;5.77;1.23;;;1.40;99.90;;;;;;4982389;28;20220;-80
2023/03/05 06:46:30;;;;;;;4.77;1.27;;;1.50;99.90;;;;;;4967173;28;20228;-80
2023/03/05 06:48:59;;;;;;;5.20;1.20;;;1.50;99.90;;;;;;4966884;28;20228;-81
2023/03/05 06:51:28;;;;;;;4.83;1.30;;;1.50;99.90;;;;;;4964356;28;20234;-80
2023/03/05 06:53:55;;;;;;;5.23;1.30;;;1.50;99.90;;;;;;4977101;28;20241;-80
2023/03/05 06:56:24;;;;;;;5.87;1.33;;;1.60;99.90;;;;;;4968232;28;20643;-80
2023/03/05 06:58:51;;;;;;;4.93;1.10;;;1.60;99.90;;;;;;4984630;28;20223;-80
2023/03/05 07:01:19;;;;;;;4.70;1.30;;;1.60;99.90;;;;;;4956702;28;20245;-80
2023/03/05 07:03:48;;;;;;;3.97;1.20;;;1.70;99.90;;;;;;4959318;28;20227;-81
2023/03/05 07:06:15;;;;;;;3.30;0.83;;;1.70;99.90;;;;;;4985851;28;20218;-81
2023/03/05 07:08:43;;;;;;;3.93;1.20;;;1.70;99.90;;;;;;4985122;28;20243;-78
2023/03/05 07:11:10;;;;;;;6.53;1.10;;;1.80;99.90;;;;;;4972628;28;20234;-79
2023/03/05 07:13:39;;;;;;;4.60;1.10;;;1.80;99.90;;;;;;4987684;28;20286;-80
2023/03/05 07:16:06;;;;;;;2.90;1.00;;;1.80;99.90;;;;;;4985601;28;20227;-80
2023/03/05 07:18:33;;;;;;;4.93;1.90;;;1.90;99.90;;;;;;4994690;28;20241;-79
2023/03/05 07:21:02;;;;;;;5.23;1.40;;;1.90;99.90;;;;;;4978927;28;20604;-80
2023/03/05 07:23:29;;;;;;;2.97;1.00;;;2.00;99.90;;;;;;4974327;28;20294;-80
2023/03/05 07:25:56;;;;;;;7.47;1.07;;;2.10;99.90;;;;;;4970420;28;20232;-81
2023/03/05 07:28:22;;;;;;;3.93;0.73;;;2.20;99.90;;;;;;4971915;28;20586;-80
2023/03/05 07:30:56;;;;;;;3.47;1.17;;;2.20;99.90;;;;;;4994520;28;20238;-81
2023/03/05 07:33:23;;;;;;;3.43;0.90;;;2.20;99.90;;;;;;4993975;28;20249;-81
2023/03/05 07:35:50;;;;;;;2.37;0.90;;;2.30;99.90;;;;;;4978557;28;20226;-81
2023/03/05 07:38:17;;;;;;;2.50;0.83;;;2.40;99.90;;;;;;4974107;28;20746;-80
2023/03/05 07:40:43;;;;;;;3.77;1.13;;;2.40;99.90;;;;;;4978471;28;20223;-80
2023/03/05 07:43:10;;;;;;;3.53;0.87;;;2.50;99.90;;;;;;4983412;28;20735;-81
2023/03/05 07:45:39;;;;;;;2.57;0.90;;;2.60;99.90;;;;;;4990756;28;20240;-80
2023/03/05 07:48:08;;;;;;;2.30;0.80;;;2.60;99.90;;;;;;4978867;28;20229;-81
2023/03/05 07:50:34;;;;;;;4.33;1.47;;;2.70;99.90;;;;;;4970125;28;20233;-79
2023/03/05 07:53:01;;;;;;;8.10;2.03;;;2.80;99.90;;;;;;4975952;28;20228;-80
2023/03/05 07:55:28;;;;;;;5.40;1.27;;;2.90;99.90;;;;;;4975708;28;20246;-80
2023/03/05 07:57:55;;;;;;;5.27;1.20;;;2.90;99.90;;;;;;4982543;28;20736;-83
2023/03/05 08:00:21;;;;;;;4.43;1.53;;;3.00;99.90;;;;;;4975068;28;20232;-81
2023/03/05 08:02:48;;;;;;;4.50;1.10;;;3.10;99.90;;;;;;4980906;28;20227;-79
2023/03/05 08:05:17;;;;;;;5.63;1.53;;;3.10;99.90;;;;;;4972440;28;20319;-80
2023/03/05 08:07:44;;;;;;;4.03;0.93;;;3.10;99.90;;;;;;4967989;28;20759;-80
2023/03/05 08:10:11;;;;;;;4.53;1.20;;;3.20;99.90;;;;;;4971290;28;20235;-79
2023/03/05 08:12:37;;;;;;;3.10;1.00;;;3.20;99.90;;;;;;4971856;28;20656;-80
2023/03/05 08:15:05;;;;;;;3.73;1.00;;;3.20;99.90;;;;;;4973444;28;20239;-81
2023/03/05 08:17:32;;;;;;;3.67;0.83;;;3.30;99.90;;;;;;4992063;28;20240;-80
2023/03/05 08:20:01;;;;;;;2.27;0.80;;;3.40;99.90;;;;;;4987800;28;20230;-80
2023/03/05 08:22:29;;;;;;;5.60;1.00;;;3.40;99.90;;;;;;4989057;28;20234;-80
2023/03/05 08:24:55;;;;;;;3.30;0.90;;;3.50;99.90;;;;;;4972410;28;20224;-81
2023/03/05 08:27:22;;;;;;;3.40;1.00;;;3.50;99.90;;;;;;4978475;28;20324;-80
2023/03/05 08:29:49;;;;;;;2.80;1.00;;;3.60;99.90;;;;;;4992940;28;20235;-80
2023/03/05 08:32:15;;;;;;;2.87;0.70;;;3.80;99.90;;;;;;4968454;28;20226;-81
2023/03/05 08:34:42;;;;;;;5.50;1.10;;;3.90;99.90;;;;;;4984426;28;20653;-81
2023/03/05 08:37:09;;;;;;;5.37;1.20;;;4.00;99.90;;;;;;4975677;28;20227;-80
2023/03/05 08:39:37;;;;;;;3.53;1.00;;;4.10;99.90;;;;;;4976048;28;20296;-80
2023/03/05 08:42:04;;;;;;;2.70;0.93;;;4.20;99.90;;;;;;4972553;28;20228;-80
2023/03/05 08:44:30;;;;;;;2.93;1.00;;;4.20;99.90;;;;;;4989189;28;20235;-81
2023/03/05 08:46:57;;;;;;;3.30;1.20;;;4.30;99.90;;;;;;4971086;28;20236;-80
2023/03/05 08:49:24;;;;;;;2.67;0.90;;;4.30;99.90;;;;;;4976476;28;20262;-79
2023/03/05 08:51:50;;;;;;;4.90;1.23;;;4.40;99.90;;;;;;4974475;28;20239;-81
2023/03/05 08:54:17;;;;;;;6.67;1.30;;;4.40;99.90;;;;;;4979065;28;20228;-82
2023/03/05 08:56:45;;;;;;;3.60;1.30;;;4.50;99.90;;;;;;4985693;28;20313;-82
2023/03/05 08:59:12;;;;;;;2.00;0.93;;;4.50;99.90;;;;;;4977275;28;20309;-81
2023/03/05 09:01:38;;;;;;;3.97;1.07;;;4.60;99.90;;;;;;4989024;28;20727;-82
2023/03/05 09:04:05;;;;;;;4.90;1.33;;;4.70;99.90;;;;;;4986910;28;20854;-81
2023/03/05 09:06:33;;;;;;;4.37;1.17;;;4.70;99.90;;;;;;4972314;28;20886;-83
2023/03/05 09:08:59;;;;;;;3.70;0.90;;;4.70;99.90;;;;;;4971799;28;20231;-80
2023/03/05 09:11:26;;;;;;;5.23;1.20;;;4.80;99.90;;;;;;4970090;28;20240;-80
2023/03/05 09:13:54;;;;;;;2.63;1.13;;;4.90;99.90;;;;;;4970835;28;20539;-80
2023/03/05 09:16:21;;;;;;;4.67;1.00;;;5.10;99.90;;;;;;4963780;28;20228;-80
2023/03/05 09:18:47;;;;;;;6.43;1.10;;;5.20;99.90;;;;;;4977078;28;20238;-80
2023/03/05 09:21:16;;;;;;;4.23;1.30;;;5.40;99.90;;;;;;4966191;28;20211;-80
2023/03/05 09:23:43;;;;;;;4.70;1.30;;;5.50;99.90;;;;;;4970130;28;20579;-80
2023/03/05 09:26:12;;;;;;;4.60;1.40;;;5.60;99.90;;;;;;4974529;28;20263;-80
2023/03/05 09:28:38;;;;;;;5.07;1.40;;;5.80;99.90;;;;;;4971623;28;20231;-80
2023/03/05 09:31:08;;;;;;;5.07;1.70;;;5.90;99.90;;;;;;4963796;28;21082;-80
2023/03/05 09:33:35;;;;;;;4.13;1.37;;;6.10;99.90;;;;;;4981925;28;20734;-80
2023/03/05 09:36:02;;;;;;;2.77;1.00;;;6.40;99.90;;;;;;4987646;28;20227;-80
2023/03/05 09:38:29;;;;;;;4.50;1.13;;;6.60;99.90;;;;;;4978378;28;20229;-79
2023/03/05 09:41:02;;;;;;;4.13;1.17;;;6.90;99.90;;;;;;4963507;28;20269;-79
2023/03/05 09:43:44;;;;;;;3.07;1.17;;;7.10;99.90;;;;;;4981578;28;20239;-80
2023/03/05 09:46:23;;;;;;;3.60;1.00;;;7.20;99.90;;;;;;4966542;28;20227;-79
2023/03/05 09:48:51;;;;;;;3.00;0.90;;;7.30;99.90;;;;;;4988795;28;20253;-80
2023/03/05 09:51:23;;;;;;;2.87;1.20;;;7.20;99.90;;;;;;4985997;28;20244;-79
2023/03/05 09:53:56;;;;;;;4.73;0.90;;;7.10;99.90;;;;;;4968903;28;20240;-79
2023/03/05 09:56:26;;;;;;;4.20;1.10;;;7.10;99.90;;;;;;4967237;28;20237;-78
2023/03/05 09:58:56;;;;;;;3.33;1.00;;;6.90;99.80;;;;;;4981471;28;20259;-79
2023/03/05 10:01:28;;;;;;;4.13;1.23;;;6.80;99.40;;;;;;4982326;28;20245;-80
2023/03/05 10:03:59;;;;;;;5.33;1.67;;;6.70;99.80;;;;;;4967582;28;20243;-79
2023/03/05 10:06:29;;;;;;;3.80;1.00;;;6.60;99.80;;;;;;4981069;28;20223;-79
2023/03/05 10:08:58;;;;;;;4.73;1.00;;;6.50;99.90;;;;;;4963490;28;20225;-79
2023/03/05 10:11:39;;;;;;;7.20;1.20;;;6.40;99.70;;;;;;4971389;28;20239;-79
2023/03/05 10:14:12;;;;;;;4.27;1.03;;;6.30;99.10;;;;;;4963597;28;20329;-79
2023/03/05 10:17:18;;;;;;;5.87;1.20;;;6.20;99.30;;;;;;4968161;28;20280;-79
2023/03/05 10:20:03;;;;;;;2.67;1.20;;;6.10;98.90;;;;;;4961274;28;20233;-80
2023/03/05 10:22:33;;;;;;;4.47;1.07;;;6.10;99.90;;;;;;4966593;28;20720;-78
2023/03/05 10:25:11;;;;;;;3.47;0.90;;;6.00;99.90;;;;;;4968301;28;20228;-79
2023/03/05 10:27:46;;;;;;;2.73;0.90;;;5.90;99.70;;;;;;4967293;28;20740;-79
2023/03/05 10:30:31;;;;;;;5.37;1.40;;;5.90;99.80;;;;;;4968159;28;20624;-79
2023/03/05 10:33:09;;;;;;;2.97;1.00;;;5.80;99.90;;;;;;4965957;28;20233;-79
2023/03/05 10:35:55;;;;;;;3.53;1.13;;;5.50;99.90;;;;;;4976527;28;20317;-79
2023/03/05 10:38:44;;;;;;;4.33;1.30;;;5.40;99.90;;;;;;4980611;28;20218;-79
2023/03/05 10:41:20;;;;;;;31.40;14.93;;;5.30;99.90;;;;;;4971495;28;20238;-79
2023/03/05 10:43:52;;;;;;;5.37;1.90;;;5.30;99.90;;;;;;4966390;28;20227;-78
2023/03/05 10:46:24;;;;;;;5.80;1.60;;;5.40;99.90;;;;;;4988031;28;20240;-79
2023/03/05 10:48:54;;;;;;;5.13;1.13;;;5.70;99.90;;;;;;4972541;28;20747;-79
2023/03/05 10:51:30;;;;;;;2.30;1.00;;;6.00;99.90;;;;;;4970436;28;20668;-79
2023/03/05 10:53:59;;;;;;;3.07;0.90;;;6.40;99.90;;;;;;4969031;28;21265;-79
2023/03/05 10:56:28;;;;;;;5.20;1.10;;;6.90;99.90;;;;;;4964273;28;20233;-79
2023/03/05 10:58:55;;;;;;;5.43;1.00;;;7.20;99.90;;;;;;4971285;28;20234;-79
2023/03/05 11:01:24;;;;;;;3.37;1.03;;;7.50;99.90;;;;;;4979061;28;20221;-79
2023/03/05 11:03:54;;;;;;;4.50;1.00;;;7.60;99.40;;;;;;4967876;28;20244;-79
2023/03/05 11:06:37;;;;;;;17.23;8.13;;;7.70;99.10;;;;;;4980242;28;20226;-79
2023/03/05 11:09:19;;;;;;;2.47;1.27;;;7.70;98.70;;;;;;4964533;28;20242;-80
2023/03/05 11:12:03;;;;;;;3.47;1.13;;;7.80;98.60;;;;;;4966431;28;20236;-80
2023/03/05 11:14:32;;;;;;;3.43;1.90;;;7.80;98.80;;;;;;4970496;28;20228;-79
2023/03/05 11:16:59;;;;;;;3.47;1.00;;;7.90;98.80;;;;;;4973311;28;20248;-80
2023/03/05 11:19:30;;;;;;;1.50;0.60;;;8.00;98.00;;;;;;4969966;28;20264;-80
2023/03/05 11:22:15;;;;;;;4.67;0.80;;;8.00;97.70;;;;;;4973210;28;20317;-80
2023/03/05 11:24:44;;;;;;;2.80;0.90;;;8.10;96.70;;;;;;4989845;28;20229;-80
2023/03/05 11:27:23;;;;;;;1.90;0.70;;;8.00;96.70;;;;;;4973593;28;20257;-80
2023/03/05 11:29:51;;;;;;;1.87;0.80;;;7.90;96.40;;;;;;4970664;28;20283;-80
2023/03/05 11:32:22;;;;;;;5.57;1.40;;;7.80;96.20;;;;;;4988968;28;20694;-79
2023/03/05 11:34:49;;;;;;;2.53;1.13;;;7.60;96.10;;;;;;4974454;28;20622;-79
2023/03/05 11:37:23;;;;;;;3.60;1.67;;;7.40;96.00;;;;;;4970731;28;20224;-80
2023/03/05 11:40:14;;;;;;;11.47;7.87;;;7.20;96.10;;;;;;4970425;28;20245;-80
2023/03/05 11:42:43;;;;;;;1.87;1.30;;;6.90;96.10;;;;;;4986379;28;20241;-80
2023/03/05 11:45:16;;;;;;;41.03;29.60;;;6.60;97.20;;;;;;4983987;28;20223;-81
2023/03/05 11:47:47;;;;;;;9.63;7.13;;;6.20;97.80;;;;;;4970553;28;20233;-80
2023/03/05 11:50:20;;;;;;;4.57;2.80;;;5.80;98.40;;;;;;4974346;28;20233;-81
2023/03/05 11:52:50;;;;;;;11.13;8.73;;;5.30;99.60;;;;;;4971376;28;20290;-80
2023/03/05 11:55:19;;;;;;;20.33;18.20;;;5.00;99.90;;;;;;4971511;28;20386;-81
2023/03/05 11:57:51;;;;;;;4.23;3.07;;;4.70;99.90;;;;;;4972272;28;20693;-80
2023/03/05 12:00:21;;;;;;;2.10;1.53;;;4.50;99.90;;;;;;4987037;28;20243;-81
2023/03/05 12:02:52;;;;;;;17.63;11.37;;;4.40;99.90;;;;;;4989155;28;20266;-80
2023/03/05 12:05:20;;;;;;;5.27;1.70;;;4.50;99.90;;;;;;4974263;28;20297;-80
2023/03/05 12:07:53;;;;;;;6.97;3.90;;;4.60;99.90;;;;;;4970495;28;20257;-80
2023/03/05 12:10:23;;;;;;;2.80;1.40;;;4.80;99.90;;;;;;4974711;28;20231;-80
2023/03/05 12:12:57;;;;;;;2.20;1.20;;;5.00;99.90;;;;;;4969110;28;20295;-82
2023/03/05 12:15:42;;;;;;;1.43;0.90;;;5.20;99.90;;;;;;4980061;28;20228;-80
2023/03/05 12:18:17;;;;;;;4.80;1.30;;;5.40;99.90;;;;;;4987269;28;20229;-80
2023/03/05 12:20:49;;;;;;;1.43;0.97;;;5.60;99.90;;;;;;4960757;28;20236;-80
2023/03/05 12:23:20;;;;;;;5.17;4.37;;;5.80;99.90;;;;;;4963741;28;20234;-80
2023/03/05 12:25:49;;;;;;;3.03;2.33;;;5.90;99.90;;;;;;4985521;28;20231;-81
2023/03/05 12:28:37;;;;;;;3.37;1.30;;;6.00;99.90;;;;;;4971836;28;20257;-79
2023/03/05 12:31:05;;;;;;;5.23;1.53;;;6.10;99.90;;;;;;4972591;28;20320;-79
2023/03/05 12:33:34;;;;;;;4.70;1.30;;;6.20;99.90;;;;;;4972732;28;20234;-80
2023/03/05 12:36:34;;;;;;;2.13;1.37;;;6.30;99.90;;;;;;4989084;28;20257;-79
2023/03/05 12:39:24;;;;;;;4.20;1.63;;;6.30;99.90;;;;;;4968152;28;20317;-79
2023/03/05 12:41:51;;;;;;;1.97;1.30;;;6.30;99.90;;;;;;4967137;28;20890;-79
2023/03/05 12:44:20;;;;;;;3.80;1.67;;;6.30;99.90;;;;;;4968900;28;20235;-79
2023/03/05 12:47:18;;;;;;;2.77;1.60;;;6.30;99.90;;;;;;4971064;28;20259;-79
2023/03/05 12:49:46;;;;;;;1.83;1.43;;;6.40;99.90;;;;;;4967228;28;20221;-80
2023/03/05 12:52:23;;;;;;;2.97;1.20;;;6.40;99.90;;;;;;4988700;28;20227;-79
2023/03/05 12:55:05;;;;;;;4.13;1.30;;;6.50;99.90;;;;;;4970086;28;20334;-79
2023/03/05 12:57:32;;;;;;;3.07;1.60;;;6.50;99.90;;;;;;4969298;28;20232;-79
2023/03/05 13:00:06;;;;;;;7.30;2.13;;;6.50;99.90;;;;;;4974906;28;20225;-79
2023/03/05 13:02:37;;;;;;;3.27;1.37;;;6.40;99.90;;;;;;4970171;28;20764;-79
2023/03/05 13:05:11;;;;;;;3.27;1.60;;;6.40;99.90;;;;;;4967703;28;20219;-78
2023/03/05 13:07:38;;;;;;;2.67;1.13;;;6.40;99.60;;;;;;4984340;28;20218;-78
2023/03/05 13:10:20;;;;;;;1.27;0.50;;;6.30;99.70;;;;;;4967067;28;20234;-78